createdAt,value
2022-09-30T00:00:07.144Z,7.60
2022-09-30T00:01:10.667Z,7.63
2022-09-30T00:02:12.666Z,7.43
2022-09-30T00:03:14.503Z,7.93
2022-09-30T00:04:17.481Z,7.77
2022-09-30T00:05:19.290Z,7.93
2022-09-30T00:06:21.694Z,7.30
2022-09-30T00:07:24.370Z,7.83
2022-09-30T00:08:26.162Z,7.40
2022-09-30T00:09:27.777Z,7.70
2022-09-30T00:10:29.683Z,7.40
2022-09-30T00:11:35.224Z,8.00
2022-09-30T00:12:37.159Z,7.50
2022-09-30T00:13:40.190Z,7.90
2022-09-30T00:14:42.088Z,7.73
2022-09-30T00:15:46.946Z,7.40
2022-09-30T00:16:49.409Z,8.40
2022-09-30T00:17:51.006Z,7.77
2022-09-30T00:18:55.002Z,7.50
2022-09-30T00:19:56.814Z,8.07
2022-09-30T00:20:59.314Z,7.43
2022-09-30T00:22:00.772Z,7.43
2022-09-30T00:23:02.454Z,7.87
2022-09-30T00:24:04.931Z,7.70
2022-09-30T00:25:07.020Z,8.23
2022-09-30T00:26:12.300Z,7.80
2022-09-30T00:27:18.153Z,7.97
2022-09-30T00:28:22.619Z,8.10
2022-09-30T00:29:24.748Z,7.30
2022-09-30T00:30:29.871Z,7.60
2022-09-30T00:31:35.724Z,7.70
2022-09-30T00:32:40.582Z,7.53
2022-09-30T00:33:42.828Z,7.63
2022-09-30T00:34:44.867Z,7.83
2022-09-30T00:35:52.035Z,7.77
2022-09-30T00:36:55.706Z,7.70
2022-09-30T00:37:57.500Z,7.63
2022-09-30T00:39:02.029Z,7.90
2022-09-30T00:40:04.114Z,7.63
2022-09-30T00:41:06.099Z,7.70
2022-09-30T00:42:11.301Z,8.23
2022-09-30T00:43:15.148Z,7.40
2022-09-30T00:44:35.798Z,8.20
2022-09-30T00:45:37.655Z,7.87
2022-09-30T00:46:44.318Z,7.80
2022-09-30T00:47:52.268Z,7.33
2022-09-30T00:48:54.817Z,6.87
2022-09-30T00:49:59.469Z,6.50
2022-09-30T00:51:01.929Z,6.50
2022-09-30T00:52:03.777Z,6.40
2022-09-30T00:53:10.908Z,5.97
2022-09-30T00:54:14.696Z,6.10
2022-09-30T00:55:24.181Z,6.30
2022-09-30T00:56:30.957Z,6.10
2022-09-30T00:57:32.913Z,5.40
2022-09-30T00:58:42.573Z,5.53
2022-09-30T00:59:47.255Z,5.93
2022-09-30T01:00:50.760Z,5.23
2022-09-30T01:01:52.974Z,5.73
2022-09-30T01:02:54.985Z,5.47
2022-09-30T01:04:03.616Z,5.47
2022-09-30T01:05:05.715Z,5.10
2022-09-30T01:06:10.602Z,5.83
2022-09-30T01:07:15.495Z,6.87
2022-09-30T01:08:18.995Z,5.73
2022-09-30T01:09:21.095Z,5.50
2022-09-30T01:10:22.723Z,5.67
2022-09-30T01:11:25.445Z,6.03
2022-09-30T01:12:27.500Z,6.07
2022-09-30T01:13:33.773Z,6.17
2022-09-30T01:14:36.254Z,6.27
2022-09-30T01:15:54.692Z,5.90
2022-09-30T01:17:14.778Z,6.00
2022-09-30T01:18:25.639Z,6.20
2022-09-30T01:19:45.997Z,6.57
2022-09-30T01:20:47.902Z,6.50
2022-09-30T01:21:49.690Z,5.43
2022-09-30T01:22:51.279Z,5.43
2022-09-30T01:24:12.553Z,5.43
2022-09-30T01:25:23.072Z,5.60
2022-09-30T01:26:24.587Z,6.03
2022-09-30T01:27:44.744Z,6.23
2022-09-30T01:29:00.644Z,6.13
2022-09-30T01:30:08.198Z,6.17
2022-09-30T01:31:22.380Z,5.63
2022-09-30T01:32:42.679Z,6.33
2022-09-30T01:33:58.378Z,5.83
2022-09-30T01:35:36.728Z,6.13
2022-09-30T01:36:44.388Z,6.50
2022-09-30T01:38:06.643Z,6.30
2022-09-30T01:39:13.709Z,7.27
2022-09-30T01:40:22.178Z,6.43
2022-09-30T01:41:28.236Z,6.30
2022-09-30T01:42:32.537Z,6.03
2022-09-30T01:43:47.208Z,6.60
2022-09-30T01:44:52.442Z,6.83
2022-09-30T01:46:02.800Z,6.77
2022-09-30T01:47:04.542Z,6.93
2022-09-30T01:48:23.391Z,6.67
2022-09-30T01:49:31.585Z,6.80
2022-09-30T01:50:44.046Z,7.17
2022-09-30T01:51:53.566Z,6.87
2022-09-30T01:52:57.965Z,6.93
2022-09-30T01:54:02.974Z,6.80
2022-09-30T01:55:12.092Z,6.60
2022-09-30T01:56:19.831Z,6.40
2022-09-30T01:57:22.330Z,6.80
2022-09-30T01:58:38.603Z,7.00
2022-09-30T01:59:45.702Z,6.27
2022-09-30T02:00:50.087Z,6.50
2022-09-30T02:01:58.536Z,6.90
2022-09-30T02:03:09.513Z,6.10
2022-09-30T02:04:14.914Z,6.37
2022-09-30T02:05:35.564Z,6.83
2022-09-30T02:06:43.453Z,6.57
2022-09-30T02:08:09.046Z,7.07
2022-09-30T02:09:22.760Z,7.17
2022-09-30T02:10:45.041Z,6.67
2022-09-30T02:11:47.002Z,7.17
2022-09-30T02:12:50.777Z,7.07
2022-09-30T02:14:11.511Z,6.90
2022-09-30T02:15:18.124Z,7.20
2022-09-30T02:16:34.682Z,6.87
2022-09-30T02:17:49.030Z,7.43
2022-09-30T02:18:53.737Z,6.90
2022-09-30T02:20:02.157Z,6.83
2022-09-30T02:21:05.343Z,7.17
2022-09-30T02:22:27.679Z,7.50
2022-09-30T02:23:31.867Z,7.20
2022-09-30T02:24:37.163Z,7.07
2022-09-30T02:25:47.434Z,7.37
2022-09-30T02:26:49.648Z,7.00
2022-09-30T02:27:57.067Z,7.57
2022-09-30T02:29:04.425Z,7.37
2022-09-30T02:30:09.335Z,6.87
2022-09-30T02:31:14.256Z,6.97
2022-09-30T02:32:21.159Z,6.77
2022-09-30T02:33:30.394Z,6.80
2022-09-30T02:34:34.029Z,6.90
2022-09-30T02:35:37.217Z,6.90
2022-09-30T02:36:41.629Z,7.03
2022-09-30T02:37:45.888Z,6.67
2022-09-30T02:38:50.444Z,7.27
2022-09-30T02:40:02.393Z,7.10
2022-09-30T02:41:10.489Z,6.73
2022-09-30T02:42:15.033Z,7.03
2022-09-30T02:43:18.556Z,6.70
2022-09-30T02:44:20.185Z,7.13
2022-09-30T02:45:22.917Z,7.10
2022-09-30T02:46:36.544Z,6.57
2022-09-30T02:47:56.079Z,6.57
2022-09-30T02:49:15.193Z,6.97
2022-09-30T02:50:18.278Z,7.37
2022-09-30T02:51:23.635Z,7.17
2022-09-30T02:52:27.707Z,6.90
2022-09-30T02:53:37.473Z,7.50
2022-09-30T02:54:45.628Z,6.40
2022-09-30T02:56:01.631Z,7.07
2022-09-30T02:57:19.024Z,7.47
2022-09-30T02:58:21.318Z,7.10
2022-09-30T02:59:23.571Z,7.20
2022-09-30T03:00:25.273Z,7.00
2022-09-30T03:01:26.581Z,7.40
2022-09-30T03:02:28.204Z,7.23
2022-09-30T03:03:32.250Z,7.47
2022-09-30T03:04:34.861Z,7.70
2022-09-30T03:05:36.201Z,7.37
2022-09-30T03:06:38.579Z,6.50
2022-09-30T03:07:40.301Z,7.20
2022-09-30T03:08:42.203Z,7.53
2022-09-30T03:09:44.035Z,7.20
2022-09-30T03:10:46.854Z,6.80
2022-09-30T03:11:48.972Z,7.47
2022-09-30T03:13:02.792Z,7.23
2022-09-30T03:14:23.959Z,7.43
2022-09-30T03:15:43.790Z,6.50
2022-09-30T03:16:45.061Z,6.20
2022-09-30T03:18:06.641Z,6.20
2022-09-30T03:19:24.489Z,6.63
2022-09-30T03:20:49.208Z,5.83
2022-09-30T03:21:53.471Z,5.57
2022-09-30T03:23:03.114Z,5.53
2022-09-30T03:24:12.500Z,5.90
2022-09-30T03:25:36.149Z,6.03
2022-09-30T03:26:40.472Z,6.20
2022-09-30T03:27:47.654Z,5.70
2022-09-30T03:29:07.876Z,5.60
2022-09-30T03:30:11.478Z,5.90
2022-09-30T03:31:21.177Z,6.00
2022-09-30T03:32:30.533Z,6.30
2022-09-30T03:33:44.061Z,6.20
2022-09-30T03:35:20.971Z,5.73
2022-09-30T03:36:26.980Z,5.70
2022-09-30T03:37:31.517Z,6.23
2022-09-30T03:38:44.766Z,6.17
2022-09-30T03:40:11.177Z,6.20
2022-09-30T03:41:39.428Z,6.10
2022-09-30T03:42:40.689Z,5.90
2022-09-30T03:43:49.265Z,5.67
2022-09-30T03:45:02.980Z,5.80
2022-09-30T03:46:10.222Z,5.90
2022-09-30T03:47:13.156Z,6.20
2022-09-30T03:48:15.892Z,5.67
2022-09-30T03:49:23.019Z,5.60
2022-09-30T03:50:25.723Z,5.90
2022-09-30T03:51:29.230Z,5.97
2022-09-30T03:52:31.984Z,5.80
2022-09-30T03:53:38.082Z,5.70
2022-09-30T03:54:50.956Z,5.77
2022-09-30T03:55:52.813Z,5.40
2022-09-30T03:56:54.216Z,5.57
2022-09-30T03:57:57.617Z,6.23
2022-09-30T03:58:58.982Z,5.87
2022-09-30T04:00:00.492Z,6.27
2022-09-30T04:01:01.941Z,5.80
2022-09-30T04:02:04.783Z,6.17
2022-09-30T04:03:06.158Z,5.63
2022-09-30T04:04:07.520Z,5.43
2022-09-30T04:05:08.825Z,5.63
2022-09-30T04:06:12.727Z,5.73
2022-09-30T04:07:14.136Z,5.50
2022-09-30T04:08:15.606Z,5.63
2022-09-30T04:09:17.010Z,5.53
2022-09-30T04:10:18.366Z,5.93
2022-09-30T04:11:20.310Z,5.70
2022-09-30T04:12:21.703Z,5.93
2022-09-30T04:13:23.016Z,5.27
2022-09-30T04:14:24.629Z,6.03
2022-09-30T04:15:27.216Z,5.47
2022-09-30T04:16:29.149Z,6.00
2022-09-30T04:17:30.981Z,5.87
2022-09-30T04:18:32.356Z,5.97
2022-09-30T04:19:39.925Z,5.73
2022-09-30T04:20:41.420Z,6.70
2022-09-30T04:21:42.856Z,5.50
2022-09-30T04:22:44.446Z,5.30
2022-09-30T04:23:45.771Z,5.90
2022-09-30T04:24:47.510Z,5.60
2022-09-30T04:25:52.204Z,5.60
2022-09-30T04:26:53.532Z,5.80
2022-09-30T04:27:55.730Z,5.90
2022-09-30T04:28:58.626Z,6.27
2022-09-30T04:29:59.915Z,5.97
2022-09-30T04:31:02.038Z,6.17
2022-09-30T04:32:03.350Z,5.80
2022-09-30T04:33:04.755Z,6.03
2022-09-30T04:34:06.175Z,6.57
2022-09-30T04:35:08.010Z,5.73
2022-09-30T04:36:12.648Z,5.93
2022-09-30T04:37:14.048Z,6.37
2022-09-30T04:38:15.414Z,6.27
2022-09-30T04:39:16.717Z,5.97
2022-09-30T04:40:18.008Z,6.40
2022-09-30T04:41:19.685Z,6.30
2022-09-30T04:42:21.054Z,6.47
2022-09-30T04:43:23.484Z,6.50
2022-09-30T04:44:24.926Z,6.30
2022-09-30T04:45:26.922Z,6.80
2022-09-30T04:46:28.437Z,6.50
2022-09-30T04:47:30.100Z,6.37
2022-09-30T04:48:32.030Z,6.23
2022-09-30T04:49:33.401Z,6.43
2022-09-30T04:50:34.801Z,6.33
2022-09-30T04:51:36.438Z,6.47
2022-09-30T04:52:38.335Z,6.70
2022-09-30T04:53:40.133Z,6.17
2022-09-30T04:54:41.553Z,6.17
2022-09-30T04:55:43.146Z,6.70
2022-09-30T04:56:44.778Z,6.13
2022-09-30T04:57:46.161Z,6.20
2022-09-30T04:58:47.481Z,6.43
2022-09-30T04:59:50.703Z,6.23
2022-09-30T05:00:52.200Z,6.80
2022-09-30T05:01:53.606Z,6.90
2022-09-30T05:02:55.009Z,7.03
2022-09-30T05:03:56.305Z,6.30
2022-09-30T05:04:57.673Z,6.47
2022-09-30T05:05:59.050Z,6.37
2022-09-30T05:07:01.838Z,6.83
2022-09-30T05:08:03.691Z,6.77
2022-09-30T05:09:05.128Z,6.53
2022-09-30T05:10:08.066Z,5.93
2022-09-30T05:11:14.070Z,6.93
2022-09-30T05:12:15.724Z,6.40
2022-09-30T05:13:17.022Z,5.77
2022-09-30T05:14:18.537Z,6.30
2022-09-30T05:15:19.852Z,5.97
2022-09-30T05:16:21.761Z,6.27
2022-09-30T05:17:23.154Z,5.93
2022-09-30T05:18:26.395Z,6.27
2022-09-30T05:19:28.156Z,6.40
2022-09-30T05:20:29.971Z,5.83
2022-09-30T05:21:31.418Z,5.50
2022-09-30T05:22:32.727Z,5.63
2022-09-30T05:23:34.152Z,5.83
2022-09-30T05:24:35.478Z,5.57
2022-09-30T05:25:36.748Z,5.30
2022-09-30T05:26:38.071Z,5.90
2022-09-30T05:27:39.443Z,5.73
2022-09-30T05:28:41.295Z,5.87
2022-09-30T05:29:42.685Z,5.67
2022-09-30T05:30:45.271Z,6.07
2022-09-30T05:31:46.602Z,6.57
2022-09-30T05:34:22.950Z,15.43
2022-09-30T05:35:24.260Z,19.50
2022-09-30T05:36:25.571Z,18.13
2022-09-30T05:37:26.856Z,17.27
2022-09-30T05:38:28.199Z,15.77
2022-09-30T05:39:29.862Z,13.33
2022-09-30T05:40:31.786Z,12.60
2022-09-30T05:41:33.168Z,15.03
2022-09-30T05:42:35.861Z,17.13
2022-09-30T05:43:38.125Z,18.27
2022-09-30T05:44:39.417Z,17.70
2022-09-30T05:45:40.795Z,18.37
2022-09-30T05:46:42.905Z,20.20
2022-09-30T05:47:50.583Z,18.83
2022-09-30T05:48:53.285Z,17.33
2022-09-30T05:49:56.251Z,14.20
2022-09-30T05:50:58.365Z,12.33
2022-09-30T05:51:59.676Z,8.80
2022-09-30T05:53:01.142Z,7.67
2022-09-30T05:54:02.595Z,7.07
2022-09-30T05:55:04.016Z,7.27
2022-09-30T05:56:06.204Z,6.80
2022-09-30T05:57:08.206Z,6.73
2022-09-30T05:58:09.519Z,6.00
2022-09-30T05:59:10.851Z,6.70
2022-09-30T06:00:12.326Z,6.30
2022-09-30T06:01:14.816Z,6.57
2022-09-30T06:02:16.395Z,7.40
2022-09-30T06:03:18.119Z,8.53
2022-09-30T06:04:19.425Z,8.63
2022-09-30T06:05:22.007Z,8.40
2022-09-30T06:06:23.397Z,9.10
2022-09-30T06:07:24.741Z,8.47
2022-09-30T06:08:26.069Z,8.23
2022-09-30T06:09:27.453Z,7.53
2022-09-30T06:10:29.097Z,7.33
2022-09-30T06:11:31.596Z,7.80
2022-09-30T06:12:32.967Z,7.20
2022-09-30T06:13:34.270Z,6.97
2022-09-30T06:14:35.590Z,6.63
2022-09-30T06:16:28.224Z,7.80
2022-09-30T06:17:34.613Z,6.63
2022-09-30T06:18:36.153Z,7.03
2022-09-30T06:19:37.463Z,7.10
2022-09-30T06:20:38.838Z,7.40
2022-09-30T06:21:40.149Z,7.37
2022-09-30T06:22:43.305Z,7.53
2022-09-30T06:23:44.688Z,8.50
2022-09-30T06:24:46.365Z,7.67
2022-09-30T06:25:51.599Z,7.60
2022-09-30T06:26:52.908Z,9.20
2022-09-30T06:27:54.264Z,12.40
2022-09-30T06:28:55.687Z,14.20
2022-09-30T06:29:57.845Z,13.90
2022-09-30T06:30:59.145Z,14.97
2022-09-30T06:32:01.506Z,17.30
2022-09-30T06:33:02.905Z,17.90
2022-09-30T06:34:04.601Z,17.73
2022-09-30T06:35:06.085Z,19.53
2022-09-30T06:36:07.434Z,19.03
2022-09-30T06:37:08.714Z,19.77
2022-09-30T06:38:10.173Z,19.77
2022-09-30T06:39:13.645Z,19.53
2022-09-30T06:40:15.203Z,17.67
2022-09-30T06:41:16.509Z,15.87
2022-09-30T06:42:18.745Z,15.43
2022-09-30T06:43:20.813Z,14.93
2022-09-30T06:44:22.103Z,14.73
2022-09-30T06:45:31.146Z,15.33
2022-09-30T06:46:35.861Z,14.13
2022-09-30T06:47:39.752Z,12.23
2022-09-30T06:48:42.707Z,12.30
2022-09-30T06:49:49.653Z,11.50
2022-09-30T06:51:01.487Z,11.27
2022-09-30T06:52:03.973Z,12.07
2022-09-30T06:53:06.786Z,12.20
2022-09-30T06:54:09.051Z,12.03
2022-09-30T06:55:10.717Z,11.00
2022-09-30T06:56:12.711Z,10.77
2022-09-30T06:57:13.995Z,9.87
2022-09-30T06:58:15.687Z,9.50
2022-09-30T06:59:17.080Z,10.17
2022-09-30T07:00:18.453Z,9.57
2022-09-30T07:01:20.890Z,9.77
2022-09-30T07:02:22.402Z,9.70
2022-09-30T07:03:26.452Z,9.27
2022-09-30T07:04:27.776Z,9.33
2022-09-30T07:05:29.097Z,9.17
2022-09-30T07:06:31.053Z,9.07
2022-09-30T07:07:35.797Z,9.50
2022-09-30T07:08:38.773Z,9.50
2022-09-30T07:09:40.247Z,9.67
2022-09-30T07:10:41.667Z,10.70
2022-09-30T07:11:43.053Z,13.53
2022-09-30T07:12:44.377Z,11.93
2022-09-30T07:13:46.777Z,11.73
2022-09-30T07:14:48.237Z,12.97
2022-09-30T07:15:54.035Z,14.50
2022-09-30T07:16:55.607Z,14.07
2022-09-30T07:17:56.937Z,14.17
2022-09-30T07:18:59.836Z,15.73
2022-09-30T07:20:01.372Z,16.97
2022-09-30T07:21:02.721Z,18.87
2022-09-30T07:22:22.856Z,17.57
2022-09-30T07:23:27.651Z,18.47
2022-09-30T07:24:29.259Z,18.23
2022-09-30T07:25:30.548Z,18.57
2022-09-30T07:26:31.995Z,17.20
2022-09-30T07:27:33.983Z,17.27
2022-09-30T07:28:36.048Z,17.93
2022-09-30T07:29:56.882Z,18.70
2022-09-30T07:31:19.968Z,18.40
2022-09-30T07:32:21.421Z,17.57
2022-09-30T07:33:23.263Z,17.03
2022-09-30T07:34:24.647Z,16.00
2022-09-30T07:35:25.982Z,17.40
2022-09-30T07:36:32.738Z,16.70
2022-09-30T07:37:36.128Z,16.03
2022-09-30T07:38:40.394Z,16.30
2022-09-30T07:39:42.797Z,16.23
2022-09-30T07:40:51.433Z,17.07
2022-09-30T07:41:53.420Z,16.43
2022-09-30T07:42:54.833Z,17.10
2022-09-30T07:43:58.616Z,16.60
2022-09-30T07:45:00.853Z,16.77
2022-09-30T07:46:03.089Z,16.90
2022-09-30T07:47:04.437Z,17.00
2022-09-30T07:48:25.692Z,17.17
2022-09-30T07:49:27.218Z,16.60
2022-09-30T07:50:28.509Z,16.53
2022-09-30T07:51:37.445Z,16.73
2022-09-30T07:52:38.737Z,14.97
2022-09-30T07:53:40.616Z,14.00
2022-09-30T07:54:46.604Z,15.27
2022-09-30T07:55:50.949Z,14.67
2022-09-30T07:57:09.209Z,15.30
2022-09-30T07:58:11.698Z,14.63
2022-09-30T07:59:13.006Z,14.20
2022-09-30T08:00:40.496Z,14.67
2022-09-30T08:01:35.807Z,14.83
2022-09-30T08:02:37.225Z,14.97
2022-09-30T08:03:39.849Z,14.80
2022-09-30T08:04:44.006Z,14.70
2022-09-30T08:05:45.945Z,15.70
2022-09-30T08:06:52.038Z,15.50
2022-09-30T08:07:53.374Z,15.00
2022-09-30T08:08:55.433Z,14.87
2022-09-30T08:09:56.791Z,15.47
2022-09-30T08:11:01.654Z,14.93
2022-09-30T08:12:04.306Z,14.37
2022-09-30T08:13:06.416Z,15.27
2022-09-30T08:14:07.768Z,14.90
2022-09-30T08:15:09.674Z,15.50
2022-09-30T08:16:11.002Z,15.77
2022-09-30T08:17:12.390Z,15.67
2022-09-30T08:18:13.689Z,14.83
2022-09-30T08:19:19.469Z,15.30
2022-09-30T08:20:22.597Z,15.97
2022-09-30T08:21:24.203Z,15.40
2022-09-30T08:22:25.551Z,15.20
2022-09-30T08:23:28.142Z,14.70
2022-09-30T08:24:29.457Z,15.50
2022-09-30T08:25:30.777Z,15.77
2022-09-30T08:26:32.162Z,15.87
2022-09-30T08:27:33.542Z,15.67
2022-09-30T08:28:34.993Z,15.57
2022-09-30T08:29:53.739Z,16.20
2022-09-30T08:30:56.048Z,16.37
2022-09-30T08:31:57.429Z,16.27
2022-09-30T08:32:58.737Z,15.80
2022-09-30T08:34:00.277Z,16.07
2022-09-30T08:35:01.560Z,15.60
2022-09-30T08:36:03.961Z,16.30
2022-09-30T08:37:09.285Z,16.93
2022-09-30T08:38:11.016Z,15.87
2022-09-30T08:39:12.295Z,16.67
2022-09-30T08:40:39.777Z,15.47
2022-09-30T08:41:53.272Z,15.93
2022-09-30T08:43:12.939Z,16.03
2022-09-30T08:44:23.410Z,14.67
2022-09-30T08:45:27.731Z,14.63
2022-09-30T08:46:58.385Z,13.80
2022-09-30T08:48:00.274Z,15.47
2022-09-30T08:49:20.256Z,14.67
2022-09-30T08:50:34.432Z,14.83
2022-09-30T08:51:45.464Z,15.63
2022-09-30T08:52:51.950Z,14.77
2022-09-30T08:53:54.506Z,14.37
2022-09-30T08:54:56.558Z,14.87
2022-09-30T08:56:02.268Z,13.93
2022-09-30T08:57:05.278Z,15.53
2022-09-30T08:58:11.034Z,15.10
2022-09-30T08:59:26.710Z,15.17
2022-09-30T09:00:28.205Z,14.83
2022-09-30T09:01:32.420Z,13.57
2022-09-30T09:02:43.265Z,13.40
2022-09-30T09:03:45.293Z,13.53
2022-09-30T09:04:47.821Z,14.00
2022-09-30T09:05:55.806Z,14.33
2022-09-30T09:07:12.039Z,13.63
2022-09-30T09:08:13.325Z,14.07
2022-09-30T09:09:18.039Z,14.20
2022-09-30T09:10:19.383Z,14.27
2022-09-30T09:11:42.745Z,14.33
2022-09-30T09:13:03.907Z,14.43
2022-09-30T09:14:17.260Z,14.83
2022-09-30T09:15:27.628Z,14.87
2022-09-30T09:16:41.050Z,16.10
2022-09-30T09:18:18.421Z,17.70
2022-09-30T09:19:22.313Z,15.10
2022-09-30T09:20:27.105Z,14.27
2022-09-30T09:21:42.126Z,14.60
2022-09-30T09:22:45.839Z,14.70
2022-09-30T09:23:48.100Z,14.60
2022-09-30T09:24:50.674Z,14.43
2022-09-30T09:25:55.566Z,15.50
2022-09-30T09:26:57.828Z,15.80
2022-09-30T09:28:00.070Z,14.83
2022-09-30T09:29:01.472Z,14.83
2022-09-30T09:30:13.682Z,15.80
2022-09-30T09:31:17.134Z,14.93
2022-09-30T09:32:19.074Z,14.53
2022-09-30T09:33:22.868Z,15.73
2022-09-30T09:34:24.599Z,15.93
2022-09-30T09:35:31.967Z,14.97
2022-09-30T09:36:33.623Z,15.83
2022-09-30T09:37:58.387Z,15.30
2022-09-30T09:39:07.543Z,15.00
2022-09-30T09:40:11.410Z,14.60
2022-09-30T09:41:17.332Z,13.73
2022-09-30T09:42:21.760Z,13.80
2022-09-30T09:43:43.758Z,14.70
2022-09-30T09:44:49.411Z,14.20
2022-09-30T09:45:50.724Z,13.77
2022-09-30T09:47:05.278Z,14.20
2022-09-30T09:48:09.053Z,13.70
2022-09-30T09:49:13.301Z,13.47
2022-09-30T09:50:19.266Z,12.47
2022-09-30T09:51:31.301Z,12.27
2022-09-30T09:52:40.679Z,12.80
2022-09-30T09:53:49.291Z,11.80
2022-09-30T09:54:52.376Z,12.23
2022-09-30T09:55:55.253Z,11.13
2022-09-30T09:56:56.718Z,12.23
2022-09-30T09:58:09.927Z,12.87
2022-09-30T09:59:17.044Z,12.10
2022-09-30T10:00:39.458Z,11.80
2022-09-30T10:01:50.775Z,11.27
2022-09-30T10:03:03.982Z,12.03
2022-09-30T10:04:11.643Z,11.90
2022-09-30T10:05:24.923Z,12.27
2022-09-30T10:06:26.309Z,12.03
2022-09-30T10:07:29.020Z,11.57
2022-09-30T10:08:39.089Z,11.90
2022-09-30T10:09:41.226Z,11.50
2022-09-30T10:10:56.127Z,11.07
2022-09-30T10:12:06.696Z,11.17
2022-09-30T10:13:15.534Z,11.57
2022-09-30T10:14:21.416Z,11.30
2022-09-30T10:15:24.158Z,11.17
2022-09-30T10:16:35.727Z,11.53
2022-09-30T10:17:37.599Z,10.80
2022-09-30T10:18:39.634Z,10.20
2022-09-30T10:19:42.086Z,10.53
2022-09-30T10:20:50.034Z,10.10
2022-09-30T10:21:55.352Z,10.00
2022-09-30T10:23:02.723Z,10.73
2022-09-30T10:24:18.837Z,9.33
2022-09-30T10:25:22.579Z,10.20
2022-09-30T10:26:25.217Z,10.13
2022-09-30T10:27:31.072Z,9.97
2022-09-30T10:28:34.548Z,10.20
2022-09-30T10:29:35.989Z,9.40
2022-09-30T10:30:38.503Z,9.90
2022-09-30T10:31:43.253Z,9.97
2022-09-30T10:32:44.608Z,10.00
2022-09-30T10:33:48.293Z,10.27
2022-09-30T10:35:07.048Z,10.57
2022-09-30T10:36:11.283Z,10.30
2022-09-30T10:37:17.017Z,9.93
2022-09-30T10:38:18.384Z,9.97
2022-09-30T10:39:19.657Z,9.73
2022-09-30T10:40:22.892Z,10.93
2022-09-30T10:41:26.454Z,9.83
2022-09-30T10:42:29.764Z,10.40
2022-09-30T10:43:33.802Z,10.07
2022-09-30T10:45:04.218Z,10.07
2022-09-30T10:47:29.279Z,9.93
2022-09-30T10:48:34.803Z,9.93
2022-09-30T10:49:56.477Z,9.47
2022-09-30T10:50:57.847Z,12.20
2022-09-30T10:51:59.993Z,10.93
2022-09-30T10:53:21.188Z,9.60
2022-09-30T10:54:34.208Z,8.87
2022-09-30T10:55:41.728Z,8.90
2022-09-30T10:56:45.863Z,9.53
2022-09-30T10:57:49.574Z,9.50
2022-09-30T10:59:58.882Z,8.50
2022-09-30T11:01:05.777Z,8.33
2022-09-30T11:02:16.458Z,7.60
2022-09-30T11:03:20.888Z,7.47
2022-09-30T11:04:22.244Z,7.43
2022-09-30T11:05:27.196Z,7.17
2022-09-30T11:06:31.356Z,7.23
2022-09-30T11:07:42.003Z,7.30
2022-09-30T11:09:01.407Z,6.93
2022-09-30T11:10:07.707Z,6.40
2022-09-30T11:11:18.427Z,7.77
2022-09-30T11:12:23.237Z,7.77
2022-09-30T11:13:48.736Z,8.10
2022-09-30T11:15:02.043Z,6.70
2022-09-30T11:16:03.538Z,6.97
2022-09-30T11:17:04.878Z,6.93
2022-09-30T11:18:12.460Z,7.00
2022-09-30T11:19:32.717Z,7.30
2022-09-30T11:20:43.285Z,7.23
2022-09-30T11:21:54.285Z,6.80
2022-09-30T11:23:15.869Z,5.77
2022-09-30T11:24:24.076Z,5.90
2022-09-30T11:25:28.784Z,6.23
2022-09-30T11:26:52.421Z,6.40
2022-09-30T11:27:56.740Z,6.47
2022-09-30T11:28:58.117Z,6.10
2022-09-30T11:30:07.908Z,6.37
2022-09-30T11:31:28.286Z,6.03
2022-09-30T11:32:32.548Z,7.30
2022-09-30T11:33:49.709Z,7.70
2022-09-30T11:34:51.007Z,7.87
2022-09-30T11:36:00.043Z,7.53
2022-09-30T11:37:06.793Z,7.90
2022-09-30T11:38:20.152Z,7.33
2022-09-30T11:39:24.687Z,7.60
2022-09-30T11:40:28.800Z,7.67
2022-09-30T11:41:43.228Z,7.17
2022-09-30T11:42:48.470Z,7.63
2022-09-30T11:43:53.049Z,8.00
2022-09-30T11:45:09.880Z,8.70
2022-09-30T11:46:33.097Z,9.17
2022-09-30T11:47:47.793Z,8.07
2022-09-30T11:48:58.353Z,7.30
2022-09-30T11:50:05.971Z,6.37
2022-09-30T11:51:16.246Z,6.57
2022-09-30T11:52:29.816Z,5.93
2022-09-30T11:53:34.204Z,5.73
2022-09-30T11:54:41.670Z,5.20
2022-09-30T11:55:52.180Z,5.70
2022-09-30T11:56:56.544Z,6.10
2022-09-30T11:58:12.092Z,7.37
2022-09-30T11:59:34.526Z,8.10
2022-09-30T12:00:45.487Z,6.80
2022-09-30T12:01:50.820Z,6.77
2022-09-30T12:03:10.018Z,6.73
2022-09-30T12:04:18.420Z,6.60
2022-09-30T12:05:28.536Z,6.70
2022-09-30T12:06:48.537Z,6.13
2022-09-30T12:07:52.332Z,6.00
2022-09-30T12:08:59.772Z,6.30
2022-09-30T12:10:04.670Z,6.87
2022-09-30T12:11:19.529Z,6.37
2022-09-30T12:12:20.846Z,5.67
2022-09-30T12:13:25.231Z,5.20
2022-09-30T12:14:30.047Z,5.80
2022-09-30T12:15:32.442Z,5.43
2022-09-30T12:16:34.625Z,5.40
2022-09-30T12:17:40.829Z,6.07
2022-09-30T12:18:55.321Z,6.33
2022-09-30T12:19:58.045Z,5.43
2022-09-30T12:21:19.802Z,5.37
2022-09-30T12:22:30.125Z,5.37
2022-09-30T12:23:32.532Z,5.33
2022-09-30T12:24:38.905Z,5.43
2022-09-30T12:25:43.890Z,4.73
2022-09-30T12:26:47.180Z,4.97
2022-09-30T12:27:56.340Z,4.73
2022-09-30T12:29:20.440Z,4.97
2022-09-30T12:30:23.860Z,5.83
2022-09-30T12:31:43.809Z,5.47
2022-09-30T12:32:57.455Z,6.87
2022-09-30T12:34:08.034Z,4.47
2022-09-30T12:35:09.572Z,3.60
2022-09-30T12:36:17.916Z,4.30
2022-09-30T12:37:38.057Z,4.27
2022-09-30T12:38:54.858Z,5.90
2022-09-30T12:40:14.671Z,6.40
2022-09-30T12:41:34.760Z,6.17
2022-09-30T12:42:54.876Z,5.67
2022-09-30T12:43:56.207Z,5.50
2022-09-30T12:45:16.467Z,5.80
2022-09-30T12:46:42.178Z,5.17
2022-09-30T12:47:48.511Z,5.10
2022-09-30T12:48:53.432Z,5.00
2022-09-30T12:49:55.956Z,5.33
2022-09-30T12:50:58.043Z,5.30
2022-09-30T12:52:02.852Z,4.93
2022-09-30T12:53:12.012Z,4.33
2022-09-30T12:54:13.306Z,4.07
2022-09-30T12:55:19.836Z,4.70
2022-09-30T12:56:26.169Z,4.10
2022-09-30T12:57:29.432Z,3.33
2022-09-30T12:58:32.529Z,3.33
2022-09-30T12:59:34.897Z,3.17
2022-09-30T13:00:37.640Z,2.87
2022-09-30T13:01:39.867Z,2.47
2022-09-30T13:02:43.292Z,2.67
2022-09-30T13:03:46.021Z,2.50
2022-09-30T13:04:47.322Z,2.73
2022-09-30T13:06:01.801Z,2.80
2022-09-30T13:07:03.082Z,2.23
2022-09-30T13:08:04.486Z,2.83
2022-09-30T13:09:07.781Z,2.60
2022-09-30T13:10:27.164Z,2.47
2022-09-30T13:11:31.625Z,2.33
2022-09-30T13:12:43.819Z,2.37
2022-09-30T13:14:26.627Z,2.50
2022-09-30T13:15:28.331Z,2.37
2022-09-30T13:16:48.069Z,2.53
2022-09-30T13:17:49.460Z,2.30
2022-09-30T13:18:50.766Z,2.20
2022-09-30T13:19:53.093Z,2.33
2022-09-30T13:21:08.189Z,2.30
2022-09-30T13:22:18.577Z,2.60
2022-09-30T13:23:39.525Z,2.63
2022-09-30T13:25:09.848Z,2.20
2022-09-30T13:26:24.152Z,2.47
2022-09-30T13:27:37.442Z,5.57
2022-09-30T13:28:39.216Z,3.40
2022-09-30T13:29:46.745Z,2.40
2022-09-30T13:30:48.144Z,2.30
2022-09-30T13:31:49.547Z,2.80
2022-09-30T13:32:58.388Z,2.70
2022-09-30T13:34:02.298Z,2.00
2022-09-30T13:35:23.599Z,2.73
2022-09-30T13:36:26.517Z,2.70
2022-09-30T13:37:31.254Z,2.67
2022-09-30T13:38:37.995Z,2.50
2022-09-30T13:39:56.094Z,2.27
2022-09-30T13:41:02.233Z,1.90
2022-09-30T13:42:13.281Z,2.53
2022-09-30T13:43:26.590Z,2.60
2022-09-30T13:44:34.032Z,2.00
2022-09-30T13:45:39.277Z,2.00
2022-09-30T13:46:49.392Z,1.80
2022-09-30T13:48:00.369Z,1.93
2022-09-30T13:49:05.823Z,1.97
2022-09-30T13:50:16.174Z,2.20
2022-09-30T13:51:20.877Z,1.80
2022-09-30T13:52:25.151Z,1.90
2022-09-30T13:53:32.795Z,1.47
2022-09-30T13:54:36.349Z,1.40
2022-09-30T13:55:49.917Z,1.57
2022-09-30T13:56:51.704Z,1.40
2022-09-30T13:58:04.902Z,1.70
2022-09-30T13:59:24.760Z,1.87
2022-09-30T14:00:27.295Z,2.23
2022-09-30T14:01:34.902Z,1.83
2022-09-30T14:03:03.595Z,2.77
2022-09-30T14:04:23.907Z,2.20
2022-09-30T14:05:44.924Z,1.70
2022-09-30T14:06:46.822Z,1.53
2022-09-30T14:07:54.133Z,1.90
2022-09-30T14:09:17.063Z,1.70
2022-09-30T14:10:29.761Z,1.80
2022-09-30T14:11:37.580Z,1.80
2022-09-30T14:12:46.921Z,2.20
2022-09-30T14:13:51.825Z,2.03
2022-09-30T14:14:53.331Z,2.13
2022-09-30T14:16:06.980Z,2.40
2022-09-30T14:17:17.480Z,2.60
2022-09-30T14:18:38.337Z,2.10
2022-09-30T14:19:58.472Z,2.20
2022-09-30T14:21:20.372Z,2.67
2022-09-30T14:22:26.333Z,2.30
2022-09-30T14:23:31.381Z,2.53
2022-09-30T14:24:37.566Z,1.70
2022-09-30T14:25:45.181Z,3.53
2022-09-30T14:26:47.383Z,5.50
2022-09-30T14:27:55.132Z,4.10
2022-09-30T14:29:01.981Z,4.73
2022-09-30T14:30:06.213Z,2.90
2022-09-30T14:31:13.877Z,2.83
2022-09-30T14:32:29.555Z,2.33
2022-09-30T14:33:31.763Z,2.50
2022-09-30T14:34:34.023Z,1.93
2022-09-30T14:35:38.026Z,1.73
2022-09-30T14:36:40.236Z,2.40
2022-09-30T14:37:59.554Z,3.03
2022-09-30T14:39:01.115Z,3.70
2022-09-30T14:40:02.926Z,18.23